createdAt,value
2022-12-15T02:36:28.392Z,89.44
2022-12-15T02:37:34.137Z,89.16
2022-12-15T02:38:39.253Z,88.68
2022-12-15T02:39:41.794Z,88.91
2022-12-15T02:40:45.422Z,89.51
2022-12-15T02:41:48.684Z,89.51
2022-12-15T02:44:14.813Z,89.40
2022-12-15T02:45:20.681Z,90.06
2022-12-15T02:46:38.086Z,89.93
2022-12-15T02:49:28.602Z,89.73
2022-12-15T02:50:49.556Z,90.19
2022-12-15T02:52:01.211Z,90.80
2022-12-15T02:53:11.949Z,90.39
2022-12-15T02:54:34.229Z,90.83
2022-12-15T02:55:42.864Z,90.50
2022-12-15T02:57:06.828Z,89.90
2022-12-15T02:58:24.742Z,90.14
2022-12-15T03:00:50.440Z,89.58
2022-12-15T03:03:15.288Z,87.84
2022-12-15T03:04:18.792Z,87.50
2022-12-15T03:05:23.542Z,87.18
2022-12-15T03:06:27.723Z,86.77
2022-12-15T03:07:29.542Z,85.83
2022-12-15T03:10:35.297Z,85.77
2022-12-15T03:11:37.421Z,85.97
2022-12-15T03:12:39.444Z,85.54
2022-12-15T03:13:41.420Z,85.24
2022-12-15T03:14:43.091Z,85.80
2022-12-15T03:15:45.000Z,85.73
2022-12-15T03:16:47.023Z,85.67
2022-12-15T03:17:49.206Z,85.45
2022-12-15T03:18:51.853Z,85.57
2022-12-15T03:19:53.645Z,85.79
2022-12-15T03:20:55.490Z,85.74
2022-12-15T03:21:57.255Z,86.39
2022-12-15T03:22:59.215Z,87.00
2022-12-15T03:24:00.963Z,87.77
2022-12-15T03:25:03.597Z,87.73
2022-12-15T03:26:05.846Z,87.75
2022-12-15T03:27:08.105Z,88.56
2022-12-15T03:28:10.443Z,88.73
2022-12-15T03:29:12.229Z,89.01
2022-12-15T03:30:15.165Z,89.89
2022-12-15T03:31:17.051Z,89.96
2022-12-15T03:32:19.112Z,90.23
2022-12-15T03:33:21.645Z,90.23
2022-12-15T03:34:23.440Z,90.46
2022-12-15T03:35:25.405Z,91.36
2022-12-15T03:36:27.578Z,91.93
2022-12-15T03:37:29.463Z,92.10
2022-12-15T03:38:31.204Z,92.82
2022-12-15T03:39:38.412Z,93.13
2022-12-15T03:40:52.292Z,93.43
2022-12-15T03:43:16.856Z,94.38
2022-12-15T03:44:18.588Z,94.62
2022-12-15T03:45:26.918Z,94.91
2022-12-15T03:46:40.140Z,95.31
2022-12-15T03:47:47.647Z,95.72
2022-12-15T03:48:49.861Z,95.83
2022-12-15T03:49:51.577Z,95.94
2022-12-15T03:50:54.521Z,96.25
2022-12-15T03:51:56.963Z,96.47
2022-12-15T03:53:01.490Z,96.84
2022-12-15T03:54:03.518Z,96.91
2022-12-15T03:55:06.197Z,97.08
2022-12-15T03:56:08.818Z,97.22
2022-12-15T03:57:10.596Z,97.49
2022-12-15T03:58:12.344Z,97.49
2022-12-15T03:59:14.066Z,97.32
2022-12-15T04:00:17.939Z,97.35
2022-12-15T04:01:29.471Z,97.43
2022-12-15T04:02:31.708Z,97.40
2022-12-15T04:03:34.512Z,97.31
2022-12-15T04:04:37.062Z,97.64
2022-12-15T04:05:40.061Z,97.37
2022-12-15T04:06:43.087Z,97.08
2022-12-15T04:07:45.121Z,97.22
2022-12-15T04:08:46.975Z,97.19
2022-12-15T04:09:51.233Z,97.60
2022-12-15T04:10:53.527Z,97.44
2022-12-15T04:11:55.765Z,97.73
2022-12-15T04:12:59.183Z,97.23
2022-12-15T04:14:01.086Z,97.34
2022-12-15T04:15:03.049Z,97.53
2022-12-15T04:16:05.480Z,97.60
2022-12-15T04:17:11.173Z,97.33
2022-12-15T04:18:13.246Z,97.75
2022-12-15T04:19:15.231Z,97.64
2022-12-15T04:20:17.201Z,97.88
2022-12-15T04:21:19.023Z,97.96
2022-12-15T04:22:21.468Z,97.91
2022-12-15T04:23:23.363Z,98.14
2022-12-15T04:24:25.212Z,98.11
2022-12-15T04:25:28.160Z,97.92
2022-12-15T04:26:30.244Z,98.07
2022-12-15T04:27:32.387Z,98.47
2022-12-15T04:28:34.396Z,98.18
2022-12-15T04:29:37.574Z,98.46
2022-12-15T04:30:43.273Z,98.57
2022-12-15T04:31:45.295Z,98.37
2022-12-15T04:32:49.719Z,98.59
2022-12-15T04:33:54.269Z,98.51
2022-12-15T04:34:56.565Z,98.51
2022-12-15T04:35:58.603Z,98.90
2022-12-15T04:37:01.577Z,99.21
2022-12-15T04:38:03.476Z,98.87
2022-12-15T04:39:05.644Z,98.55
2022-12-15T04:40:09.682Z,98.55
2022-12-15T04:41:14.178Z,98.60
2022-12-15T04:42:16.672Z,98.59
2022-12-15T04:43:18.924Z,98.49
2022-12-15T04:44:21.312Z,98.22
2022-12-15T04:45:24.804Z,98.19
2022-12-15T04:46:26.864Z,98.36
2022-12-15T04:47:29.595Z,98.45
2022-12-15T04:48:31.285Z,98.15
2022-12-15T04:49:33.217Z,98.12
2022-12-15T04:50:35.957Z,98.00
2022-12-15T04:51:38.107Z,98.16
2022-12-15T04:52:39.901Z,98.20
2022-12-15T04:53:45.327Z,97.94
2022-12-15T04:54:47.154Z,97.81
2022-12-15T04:55:49.010Z,97.62
2022-12-15T04:56:50.712Z,97.53
2022-12-15T04:57:52.790Z,97.50
2022-12-15T04:58:55.170Z,97.25
2022-12-15T04:59:57.524Z,97.33
2022-12-15T05:01:00.050Z,97.69
2022-12-15T05:02:02.172Z,97.25
2022-12-15T05:03:05.697Z,96.95
2022-12-15T05:04:08.113Z,97.10
2022-12-15T05:05:10.003Z,96.95
2022-12-15T05:06:11.872Z,96.98
2022-12-15T05:07:14.468Z,96.98
2022-12-15T05:08:16.387Z,96.27
2022-12-15T05:09:18.794Z,96.67
2022-12-15T05:10:22.022Z,96.35
2022-12-15T05:11:23.996Z,96.19
2022-12-15T05:12:25.741Z,96.49
2022-12-15T05:13:27.660Z,96.39
2022-12-15T05:14:29.441Z,96.30
2022-12-15T05:16:08.613Z,96.30
2022-12-15T05:17:42.120Z,96.15
2022-12-15T05:18:44.146Z,96.02
2022-12-15T05:19:45.936Z,95.98
2022-12-15T05:20:50.044Z,95.68
2022-12-15T05:21:52.493Z,96.19
2022-12-15T05:22:58.834Z,96.50
2022-12-15T05:24:01.164Z,96.44
2022-12-15T05:25:04.403Z,96.14
2022-12-15T05:26:07.538Z,96.16
2022-12-15T05:27:10.429Z,96.13
2022-12-15T05:28:12.801Z,96.27
2022-12-15T05:29:15.218Z,96.40
2022-12-15T05:30:17.389Z,96.80
2022-12-15T05:31:19.283Z,96.80
2022-12-15T05:32:21.048Z,96.43
2022-12-15T05:33:22.949Z,96.43
2022-12-15T05:34:27.980Z,96.37
2022-12-15T05:35:29.900Z,96.44
2022-12-15T05:36:32.026Z,96.21
2022-12-15T05:37:33.932Z,96.21
2022-12-15T05:38:35.760Z,96.54
2022-12-15T05:39:37.504Z,96.56
2022-12-15T05:40:39.675Z,96.74
2022-12-15T05:41:42.090Z,96.48
2022-12-15T05:42:44.344Z,96.17
2022-12-15T05:43:49.547Z,96.34
2022-12-15T05:44:51.397Z,96.59
2022-12-15T05:45:53.217Z,96.16
2022-12-15T05:46:55.589Z,96.21
2022-12-15T05:47:57.446Z,95.89
2022-12-15T05:49:07.054Z,95.99
2022-12-15T05:50:09.209Z,95.99
2022-12-15T05:51:12.700Z,96.38
2022-12-15T05:52:14.546Z,96.23
2022-12-15T09:58:45.277Z,100.00
2022-12-15T10:00:08.281Z,100.00
2022-12-15T10:01:16.997Z,100.00
2022-12-15T10:02:29.024Z,100.00
2022-12-15T10:03:38.364Z,100.00
2022-12-15T10:04:44.850Z,100.00
2022-12-15T10:06:15.419Z,100.00
2022-12-15T10:07:21.309Z,100.00
2022-12-15T10:08:28.647Z,100.00
2022-12-15T10:09:30.696Z,100.00
2022-12-15T10:10:36.236Z,100.00
2022-12-15T10:11:50.241Z,100.00
2022-12-15T10:13:01.764Z,100.00
2022-12-15T10:14:06.612Z,100.00
2022-12-15T10:15:26.892Z,100.00
2022-12-15T10:16:33.057Z,100.00
2022-12-15T10:17:42.037Z,100.00
2022-12-15T10:19:02.997Z,100.00
2022-12-15T10:20:09.264Z,100.00
2022-12-15T10:21:11.817Z,100.00
2022-12-15T10:22:17.242Z,100.00
2022-12-15T10:23:20.515Z,100.00
2022-12-15T10:25:07.484Z,100.00
2022-12-15T10:25:31.285Z,100.00
2022-12-15T10:26:35.035Z,100.00
2022-12-15T10:27:49.749Z,100.00
2022-12-15T10:29:04.452Z,100.00
2022-12-15T10:30:13.271Z,100.00
2022-12-15T10:31:26.054Z,100.00
2022-12-15T10:32:53.806Z,100.00
2022-12-15T10:34:00.522Z,100.00
2022-12-15T10:35:06.203Z,100.00
2022-12-15T10:36:11.593Z,100.00
2022-12-15T10:37:18.722Z,100.00
2022-12-15T10:38:33.357Z,100.00
2022-12-15T10:39:38.972Z,100.00
2022-12-15T10:40:51.263Z,100.00
2022-12-15T10:42:14.260Z,100.00
2022-12-15T10:43:34.782Z,100.00
2022-12-15T10:44:39.382Z,100.00
2022-12-15T10:45:41.637Z,100.00
2022-12-15T10:46:44.967Z,100.00
2022-12-15T10:47:50.613Z,100.00
2022-12-15T10:48:58.065Z,100.00
2022-12-15T10:50:25.431Z,100.00
2022-12-15T10:51:34.844Z,100.00
2022-12-15T10:52:37.675Z,100.00
2022-12-15T10:53:43.445Z,100.00
2022-12-15T10:54:48.604Z,100.00
2022-12-15T10:55:54.678Z,100.00
2022-12-15T10:57:02.016Z,100.00
2022-12-15T10:58:18.758Z,100.00
2022-12-15T10:59:32.849Z,100.00
2022-12-15T11:00:35.625Z,100.00
2022-12-15T11:01:37.502Z,100.00
2022-12-15T11:02:39.760Z,100.00
2022-12-15T11:03:42.271Z,100.00
2022-12-15T11:05:00.954Z,100.00
2022-12-15T11:06:07.567Z,100.00
2022-12-15T11:07:13.872Z,100.00
2022-12-15T11:08:16.693Z,100.00
2022-12-15T11:09:29.335Z,100.00
2022-12-15T11:10:32.950Z,100.00
2022-12-15T11:11:38.653Z,100.00
2022-12-15T11:12:41.201Z,100.00
2022-12-15T11:14:05.818Z,100.00
2022-12-15T11:15:33.584Z,100.00
2022-12-15T11:16:51.409Z,100.00
2022-12-15T11:18:12.140Z,100.00
2022-12-15T11:19:18.302Z,100.00
2022-12-15T11:20:24.214Z,100.00
2022-12-15T11:21:41.709Z,100.00
2022-12-15T11:22:50.469Z,100.00
2022-12-15T11:24:14.517Z,100.00
2022-12-15T11:25:26.205Z,100.00
2022-12-15T11:26:41.828Z,100.00
2022-12-15T11:27:44.664Z,100.00
2022-12-15T11:28:54.127Z,100.00
2022-12-15T11:30:14.994Z,100.00
2022-12-15T11:31:23.682Z,100.00
2022-12-15T11:32:28.677Z,100.00
2022-12-15T11:33:31.194Z,100.00
2022-12-15T11:34:36.797Z,100.00
2022-12-15T11:35:48.795Z,100.00
2022-12-15T11:37:00.777Z,100.00
2022-12-15T11:38:23.090Z,100.00
2022-12-15T11:39:29.175Z,100.00
2022-12-15T11:40:37.880Z,100.00
2022-12-15T11:41:58.722Z,100.00
2022-12-15T11:43:04.894Z,100.00
2022-12-15T11:44:30.748Z,100.00
2022-12-15T11:45:57.108Z,100.00
2022-12-15T11:47:26.289Z,100.00
2022-12-15T11:48:49.931Z,100.00
2022-12-15T11:50:08.137Z,100.00
2022-12-15T11:51:16.530Z,100.00
2022-12-15T11:52:43.096Z,100.00
2022-12-15T11:54:05.205Z,100.00
2022-12-15T11:55:29.532Z,100.00
2022-12-15T11:56:45.885Z,100.00
2022-12-15T11:58:02.329Z,100.00
2022-12-15T11:59:17.585Z,100.00
2022-12-15T12:00:21.008Z,100.00
2022-12-15T12:01:57.297Z,100.00
2022-12-15T12:03:06.277Z,100.00
2022-12-15T12:04:24.094Z,100.00
2022-12-15T12:05:47.933Z,100.00
2022-12-15T12:07:14.660Z,100.00
2022-12-15T12:08:20.174Z,100.00
2022-12-15T12:09:33.795Z,100.00
2022-12-15T12:10:57.775Z,100.00
2022-12-15T12:12:26.007Z,100.00
2022-12-15T12:13:50.877Z,100.00
2022-12-15T12:15:14.982Z,100.00
2022-12-15T12:16:45.015Z,100.00
2022-12-15T12:17:53.218Z,100.00
2022-12-15T12:19:14.055Z,100.00
2022-12-15T12:20:28.303Z,100.00
2022-12-15T12:21:39.800Z,100.00
2022-12-15T12:22:52.431Z,100.00
2022-12-15T12:24:14.186Z,100.00
2022-12-15T12:25:22.046Z,100.00
2022-12-15T12:28:02.756Z,100.00
2022-12-15T12:29:17.532Z,100.00
2022-12-15T12:30:22.543Z,100.00
2022-12-15T12:31:44.466Z,100.00
2022-12-15T12:33:03.560Z,100.00
2022-12-15T12:35:44.057Z,100.00
2022-12-15T12:36:48.952Z,100.00
2022-12-15T12:38:01.348Z,100.00
2022-12-15T12:39:02.338Z,100.00
2022-12-15T12:40:20.794Z,100.00
2022-12-15T12:43:50.597Z,100.00
2022-12-15T12:44:52.841Z,100.00
2022-12-15T12:47:22.748Z,100.00
2022-12-15T12:48:37.447Z,100.00
2022-12-15T12:49:46.120Z,100.00
2022-12-15T12:50:51.432Z,100.00
2022-12-15T12:51:56.119Z,100.00
2022-12-15T12:53:01.526Z,100.00
2022-12-15T12:55:42.563Z,100.00
2022-12-15T12:56:50.368Z,100.00
2022-12-15T12:57:54.062Z,100.00
2022-12-15T12:58:57.146Z,100.00
2022-12-15T13:00:16.663Z,100.00
2022-12-15T13:01:29.350Z,100.00
2022-12-15T13:02:35.454Z,100.00
2022-12-15T13:03:43.270Z,100.00
2022-12-15T13:05:04.203Z,100.00
2022-12-15T13:06:37.788Z,100.00
2022-12-15T13:07:41.250Z,100.00
2022-12-15T13:08:51.392Z,100.00
2022-12-15T13:11:52.256Z,100.00
2022-12-15T13:12:55.981Z,100.00
2022-12-15T13:13:58.211Z,100.00
2022-12-15T13:16:27.800Z,100.00
2022-12-15T13:17:33.546Z,100.00
2022-12-15T13:18:58.907Z,100.00
2022-12-15T13:20:04.454Z,100.00
2022-12-15T13:21:18.646Z,100.00
2022-12-15T13:22:24.540Z,100.00
2022-12-15T13:23:30.548Z,100.00
2022-12-15T13:24:50.552Z,100.00
2022-12-15T13:26:02.001Z,100.00
2022-12-15T13:27:13.415Z,100.00
2022-12-15T13:28:37.635Z,100.00
2022-12-15T13:30:01.228Z,100.00
2022-12-15T13:31:25.087Z,100.00
2022-12-15T13:32:38.128Z,100.00
2022-12-15T13:33:52.918Z,100.00
2022-12-15T13:34:57.214Z,100.00
2022-12-15T13:36:00.788Z,100.00
2022-12-15T13:37:04.983Z,100.00
2022-12-15T13:38:10.578Z,100.00
2022-12-15T13:39:19.743Z,100.00
2022-12-15T13:40:38.480Z,100.00
2022-12-15T13:42:31.321Z,100.00
2022-12-15T13:43:00.647Z,100.00
2022-12-15T13:44:23.167Z,100.00
2022-12-15T13:47:30.522Z,100.00
2022-12-15T13:48:40.344Z,100.00
2022-12-15T18:21:59.588Z,100.00
2022-12-15T18:23:07.099Z,100.00
2022-12-15T18:24:14.699Z,100.00
2022-12-15T18:25:23.082Z,100.00
2022-12-15T18:26:24.996Z,100.00
2022-12-15T18:27:29.349Z,100.00
2022-12-15T18:28:34.157Z,100.00
2022-12-15T18:29:35.909Z,100.00
2022-12-15T18:30:38.045Z,100.00
2022-12-15T18:31:41.344Z,100.00
2022-12-15T18:32:45.163Z,100.00
2022-12-15T18:33:48.537Z,100.00
2022-12-15T18:34:51.955Z,100.00
2022-12-15T18:35:54.475Z,100.00
2022-12-15T18:36:56.278Z,100.00
2022-12-15T18:37:58.065Z,100.00
2022-12-15T18:39:03.210Z,100.00
2022-12-15T18:40:09.242Z,100.00
2022-12-15T18:41:15.635Z,100.00
2022-12-15T18:42:20.857Z,100.00
2022-12-15T18:43:25.361Z,100.00
2022-12-15T18:44:31.592Z,100.00
2022-12-15T18:45:33.624Z,100.00
2022-12-15T18:46:37.598Z,100.00
2022-12-15T18:47:39.582Z,100.00
2022-12-15T18:48:43.283Z,100.00
2022-12-15T18:49:45.970Z,100.00
2022-12-15T18:50:50.994Z,100.00
2022-12-15T18:51:53.687Z,100.00
2022-12-15T18:52:58.838Z,100.00
2022-12-15T18:54:00.952Z,100.00
2022-12-15T18:55:06.557Z,100.00
2022-12-15T18:56:12.420Z,100.00
2022-12-15T18:57:30.449Z,100.00
2022-12-15T18:58:35.589Z,100.00
2022-12-15T18:59:38.110Z,100.00
2022-12-15T19:00:39.951Z,100.00
2022-12-15T19:01:43.613Z,100.00
2022-12-15T19:02:47.473Z,100.00
2022-12-15T19:03:49.820Z,100.00
2022-12-15T19:04:51.780Z,100.00
2022-12-15T19:07:13.299Z,100.00
2022-12-15T19:08:18.830Z,100.00
2022-12-15T19:09:20.775Z,100.00
2022-12-15T19:10:23.661Z,100.00
2022-12-15T19:11:28.403Z,100.00
2022-12-15T19:12:30.931Z,100.00
2022-12-15T19:13:36.283Z,100.00
2022-12-15T19:14:39.366Z,100.00
2022-12-15T19:15:42.015Z,100.00
2022-12-15T19:16:44.932Z,100.00
2022-12-15T19:17:47.618Z,100.00
2022-12-15T19:18:49.523Z,100.00
2022-12-15T19:19:52.161Z,100.00
2022-12-15T19:20:57.181Z,100.00
2022-12-15T19:22:00.215Z,100.00
2022-12-15T19:23:03.264Z,100.00
2022-12-15T19:24:08.978Z,100.00
2022-12-15T19:25:14.491Z,100.00
2022-12-15T19:26:16.898Z,100.00
2022-12-15T19:27:20.610Z,100.00
2022-12-15T19:28:25.614Z,100.00
2022-12-15T19:29:27.581Z,100.00
2022-12-15T19:30:33.169Z,100.00
2022-12-15T19:31:36.054Z,100.00
2022-12-15T19:32:38.012Z,100.00
2022-12-15T19:33:40.648Z,100.00
2022-12-15T19:34:44.027Z,100.00
2022-12-15T19:35:49.773Z,100.00
2022-12-15T19:36:54.058Z,100.00
2022-12-15T19:37:59.297Z,100.00
2022-12-15T19:39:01.255Z,100.00
2022-12-15T19:40:04.983Z,100.00
2022-12-15T19:41:11.419Z,100.00
2022-12-15T19:42:18.869Z,100.00
2022-12-15T19:43:23.367Z,100.00
2022-12-15T19:44:25.630Z,100.00
2022-12-15T19:45:30.731Z,100.00
2022-12-15T19:46:33.109Z,100.00
2022-12-15T19:47:35.158Z,100.00
2022-12-15T19:48:36.951Z,100.00
2022-12-15T19:49:40.976Z,100.00
2022-12-15T19:50:45.231Z,100.00
2022-12-15T19:51:47.444Z,100.00
2022-12-15T19:52:56.066Z,100.00
2022-12-15T19:53:59.837Z,100.00
2022-12-15T19:55:02.344Z,100.00
2022-12-15T19:56:04.874Z,100.00
2022-12-15T19:57:16.214Z,100.00
2022-12-15T19:58:27.142Z,100.00
2022-12-15T19:59:28.039Z,100.00
2022-12-15T20:00:30.455Z,100.00
2022-12-15T20:01:32.446Z,100.00
2022-12-15T20:14:28.786Z,100.00
2022-12-15T20:15:31.542Z,100.00
2022-12-15T20:16:34.711Z,100.00
2022-12-15T20:17:37.010Z,100.00
2022-12-15T20:18:39.167Z,100.00
2022-12-15T20:19:42.482Z,100.00
2022-12-15T20:20:47.168Z,100.00
2022-12-15T20:21:50.237Z,100.00
2022-12-15T20:22:55.910Z,100.00
2022-12-15T20:24:02.320Z,100.00
2022-12-15T20:25:05.227Z,100.00
2022-12-15T20:26:10.704Z,100.00
2022-12-15T20:27:16.189Z,100.00
2022-12-15T20:28:25.345Z,100.00
2022-12-15T20:29:30.214Z,100.00
2022-12-15T20:30:34.557Z,100.00
2022-12-15T20:31:36.654Z,100.00
2022-12-15T20:32:40.787Z,100.00
2022-12-15T20:33:43.963Z,100.00
2022-12-15T20:34:47.388Z,100.00
2022-12-15T20:35:51.068Z,100.00
2022-12-15T20:36:53.646Z,100.00
2022-12-15T20:37:55.667Z,100.00
2022-12-15T20:38:57.670Z,100.00
2022-12-15T20:39:59.404Z,100.00
2022-12-15T20:41:03.022Z,100.00
2022-12-15T20:42:05.511Z,100.00
2022-12-15T20:43:16.955Z,100.00
2022-12-15T20:44:20.238Z,100.00
2022-12-15T20:45:25.206Z,100.00
2022-12-15T20:46:31.398Z,100.00
2022-12-15T20:47:34.353Z,100.00
2022-12-15T20:48:36.844Z,100.00
2022-12-15T20:49:39.394Z,100.00
2022-12-15T20:50:48.434Z,100.00
2022-12-15T20:51:51.406Z,100.00
2022-12-15T20:52:56.410Z,100.00
2022-12-15T20:54:01.082Z,100.00
2022-12-15T20:55:05.772Z,100.00
2022-12-15T20:56:09.153Z,100.00
2022-12-15T20:57:11.692Z,100.00
2022-12-15T20:58:14.438Z,100.00
2022-12-15T20:59:17.175Z,100.00
2022-12-15T21:00:20.844Z,100.00
2022-12-15T21:01:27.552Z,100.00
2022-12-15T21:02:30.277Z,100.00
2022-12-15T21:03:36.283Z,100.00
2022-12-15T21:04:39.317Z,100.00
2022-12-15T21:05:41.129Z,100.00
2022-12-15T21:06:44.428Z,100.00
2022-12-15T21:07:48.702Z,100.00
2022-12-15T21:08:52.877Z,100.00
2022-12-15T21:09:54.937Z,100.00
2022-12-15T21:11:03.695Z,100.00
2022-12-15T21:12:20.437Z,100.00
2022-12-15T21:13:25.902Z,100.00
2022-12-15T21:14:27.863Z,100.00
2022-12-15T21:15:29.786Z,100.00
2022-12-15T21:16:33.428Z,100.00
2022-12-15T21:17:38.737Z,100.00
2022-12-15T21:19:44.145Z,100.00
2022-12-15T21:20:53.136Z,100.00
2022-12-15T21:21:56.041Z,100.00
2022-12-15T21:22:58.102Z,100.00
2022-12-15T21:24:03.094Z,100.00
2022-12-15T21:25:20.718Z,100.00
2022-12-15T21:26:24.554Z,100.00
2022-12-15T21:27:28.566Z,100.00
2022-12-15T21:28:31.453Z,100.00
2022-12-15T21:29:34.828Z,100.00
2022-12-15T21:30:37.700Z,100.00
2022-12-15T21:31:41.948Z,100.00
2022-12-15T21:32:43.953Z,100.00
2022-12-15T21:33:45.893Z,100.00
2022-12-15T21:34:48.302Z,100.00
2022-12-15T21:35:50.779Z,100.00
2022-12-15T21:36:54.953Z,100.00
2022-12-15T21:37:57.960Z,100.00
2022-12-15T21:39:00.465Z,100.00
2022-12-15T21:40:04.526Z,100.00
2022-12-15T21:41:10.698Z,100.00
2022-12-15T21:42:15.877Z,100.00
2022-12-15T21:43:20.595Z,100.00
2022-12-15T21:44:22.545Z,100.00
2022-12-15T21:45:26.039Z,100.00
2022-12-15T21:46:28.820Z,100.00
2022-12-15T21:47:31.619Z,100.00
2022-12-15T21:48:34.495Z,100.00
2022-12-15T21:49:36.711Z,100.00
2022-12-15T21:50:40.913Z,100.00
2022-12-15T21:51:45.980Z,100.00
2022-12-15T21:52:49.181Z,100.00
2022-12-15T21:53:51.435Z,100.00
2022-12-15T21:54:54.304Z,100.00
2022-12-15T21:55:57.907Z,100.00
2022-12-15T21:57:00.935Z,100.00
2022-12-15T21:58:06.897Z,100.00
2022-12-15T21:59:21.250Z,100.00
2022-12-15T22:00:24.262Z,100.00
2022-12-15T22:01:30.457Z,100.00
2022-12-15T22:02:33.193Z,100.00
2022-12-15T22:03:35.192Z,100.00
2022-12-15T22:04:36.826Z,100.00
2022-12-15T22:05:38.695Z,100.00
2022-12-15T22:06:43.640Z,100.00
2022-12-15T22:07:44.831Z,100.00
2022-12-15T22:08:48.341Z,100.00
2022-12-15T22:09:51.830Z,100.00
2022-12-15T22:10:55.260Z,100.00
2022-12-15T22:11:57.709Z,100.00
2022-12-15T22:13:00.251Z,100.00
2022-12-15T22:14:05.696Z,100.00
2022-12-15T22:15:17.035Z,100.00
2022-12-15T22:16:22.597Z,100.00
2022-12-15T22:17:25.381Z,100.00
2022-12-15T22:18:27.439Z,100.00
2022-12-15T22:19:30.009Z,100.00
2022-12-15T22:20:32.445Z,100.00
2022-12-15T22:21:35.001Z,100.00
2022-12-15T22:22:36.832Z,100.00
2022-12-15T22:23:39.829Z,100.00
2022-12-15T22:24:42.525Z,100.00
2022-12-15T22:25:46.104Z,100.00
2022-12-15T22:26:48.270Z,100.00
2022-12-15T22:27:51.817Z,100.00
2022-12-15T22:28:55.727Z,100.00
2022-12-15T22:29:57.793Z,100.00
2022-12-15T22:31:03.686Z,100.00
2022-12-15T22:32:15.051Z,100.00
2022-12-15T22:33:20.708Z,100.00
2022-12-15T22:34:25.857Z,100.00
2022-12-15T22:35:27.921Z,100.00
2022-12-15T22:36:30.383Z,100.00
2022-12-15T22:37:32.888Z,100.00
2022-12-15T22:38:35.799Z,100.00
2022-12-15T22:39:38.124Z,100.00
2022-12-15T22:40:40.332Z,100.00
2022-12-15T22:41:44.778Z,100.00
2022-12-15T22:42:50.354Z,100.00
2022-12-15T22:43:56.575Z,100.00
2022-12-15T22:44:59.795Z,100.00
2022-12-15T22:46:05.042Z,100.00
2022-12-15T22:47:10.311Z,100.00
2022-12-15T22:48:14.281Z,100.00
2022-12-15T22:49:20.630Z,100.00
2022-12-15T22:50:25.837Z,100.00
2022-12-15T22:51:27.994Z,100.00
2022-12-15T22:52:30.078Z,100.00
2022-12-15T22:53:34.313Z,100.00
2022-12-15T22:54:36.105Z,100.00
2022-12-15T22:55:38.633Z,100.00
2022-12-15T22:56:40.679Z,100.00
2022-12-15T22:57:49.187Z,100.00
2022-12-15T22:58:54.699Z,100.00
2022-12-15T23:01:11.303Z,100.00
2022-12-15T23:02:13.234Z,100.00
2022-12-15T23:03:15.059Z,100.00
2022-12-15T23:04:16.999Z,100.00
2022-12-15T23:05:19.812Z,100.00
2022-12-15T23:06:22.590Z,100.00
2022-12-15T23:07:25.753Z,100.00
2022-12-15T23:08:29.114Z,100.00
2022-12-15T23:09:31.902Z,100.00
2022-12-15T23:10:34.015Z,100.00
2022-12-15T23:11:35.938Z,100.00
2022-12-15T23:12:38.967Z,100.00
2022-12-15T23:13:41.381Z,100.00
2022-12-15T23:14:43.186Z,100.00
2022-12-15T23:15:45.317Z,100.00
2022-12-15T23:16:47.259Z,100.00
2022-12-15T23:17:49.149Z,100.00
2022-12-15T23:19:02.566Z,100.00
2022-12-15T23:19:58.275Z,100.00
2022-12-15T23:21:00.195Z,100.00
2022-12-15T23:22:02.360Z,100.00
2022-12-15T23:23:05.266Z,100.00
2022-12-15T23:24:07.863Z,100.00
2022-12-15T23:25:10.556Z,100.00
2022-12-15T23:26:14.480Z,100.00
2022-12-15T23:27:16.885Z,100.00
2022-12-15T23:28:18.646Z,100.00
2022-12-15T23:29:20.484Z,100.00
2022-12-15T23:30:22.478Z,100.00
2022-12-15T23:31:24.255Z,100.00
2022-12-15T23:32:26.164Z,100.00
2022-12-15T23:33:29.221Z,100.00
2022-12-15T23:34:32.659Z,100.00
2022-12-15T23:35:35.619Z,100.00
2022-12-15T23:36:37.684Z,100.00
2022-12-15T23:37:39.797Z,100.00
2022-12-15T23:38:42.306Z,100.00
2022-12-15T23:39:44.501Z,100.00
2022-12-15T23:40:52.662Z,100.00
2022-12-15T23:41:52.860Z,100.00
2022-12-15T23:42:56.369Z,100.00
2022-12-15T23:43:58.256Z,100.00
2022-12-15T23:45:00.002Z,100.00
2022-12-15T23:46:04.767Z,100.00
2022-12-15T23:47:07.020Z,100.00
2022-12-15T23:48:11.347Z,100.00
2022-12-15T23:49:14.212Z,100.00
2022-12-15T23:50:16.550Z,100.00
2022-12-15T23:51:20.871Z,100.00
2022-12-15T23:52:23.458Z,100.00
2022-12-15T23:53:25.280Z,100.00
2022-12-15T23:54:27.611Z,100.00
2022-12-15T23:55:30.337Z,100.00
2022-12-15T23:56:32.225Z,100.00
2022-12-15T23:57:34.707Z,100.00
2022-12-15T23:58:39.663Z,100.00
2022-12-15T23:59:41.447Z,100.00
